createdAt,value
2023-02-15T00:01:30.329Z,103025.28
2023-02-15T00:04:47.933Z,103016.81
2023-02-15T00:07:51.717Z,103022.63
2023-02-15T00:10:55.656Z,103018.16
2023-02-15T00:13:59.697Z,103020.69
2023-02-15T00:17:04.992Z,103016.22
2023-02-15T00:20:11.701Z,103015.19
2023-02-15T00:23:15.403Z,103015.88
2023-02-15T00:26:19.194Z,103017.50
2023-02-15T00:29:23.578Z,103018.41
2023-02-15T00:32:28.848Z,103013.88
2023-02-15T00:35:32.688Z,103017.47
2023-02-15T00:38:37.948Z,103015.69
2023-02-15T00:41:42.153Z,103012.16
2023-02-15T00:44:45.972Z,103005.91
2023-02-15T00:47:51.166Z,102999.19
2023-02-15T00:50:58.213Z,102992.94
2023-02-15T00:54:02.088Z,102982.63
2023-02-15T00:57:06.008Z,102986.47
2023-02-15T01:00:11.247Z,102984.06
2023-02-15T01:03:19.339Z,102979.97
2023-02-15T01:06:23.302Z,102983.38
2023-02-15T01:09:27.247Z,102986.78
2023-02-15T01:12:31.059Z,102977.88
2023-02-15T01:15:38.061Z,102984.13
2023-02-15T01:18:43.236Z,102979.19
2023-02-15T01:21:47.066Z,102975.53
2023-02-15T01:24:52.103Z,102975.03
2023-02-15T01:27:55.864Z,102967.16
2023-02-15T01:31:00.306Z,102972.34
2023-02-15T01:34:05.641Z,102967.84
2023-02-15T01:37:09.393Z,102967.09
2023-02-15T01:40:18.053Z,102961.38
2023-02-15T01:43:23.051Z,102959.44
2023-02-15T01:46:42.985Z,102963.59
2023-02-15T01:49:49.964Z,102958.44
2023-02-15T01:53:00.487Z,102955.84
2023-02-15T01:56:13.308Z,102957.47
2023-02-15T01:59:24.240Z,102955.84
2023-02-15T02:02:29.826Z,102951.31
2023-02-15T02:05:35.720Z,102942.44
2023-02-15T02:08:42.058Z,102948.81
2023-02-15T02:11:49.931Z,102944.31
2023-02-15T02:15:22.175Z,102942.50
2023-02-15T02:18:47.366Z,102941.47
2023-02-15T02:22:58.798Z,102939.72
2023-02-15T02:26:55.812Z,102936.06
2023-02-15T02:30:53.528Z,102933.88
2023-02-15T02:34:11.901Z,102930.06
2023-02-15T02:37:32.790Z,102919.41
2023-02-15T02:40:56.657Z,102915.59
2023-02-15T02:44:33.467Z,102917.19
2023-02-15T02:48:01.303Z,102918.34
2023-02-15T02:51:12.012Z,102917.44
2023-02-15T02:54:15.817Z,102913.19
2023-02-15T02:57:22.199Z,102904.06
2023-02-15T03:01:08.537Z,102910.16
2023-02-15T03:05:19.423Z,102906.47
2023-02-15T03:09:29.788Z,102903.00
2023-02-15T03:13:36.335Z,102912.91
2023-02-15T03:17:41.217Z,102906.47
2023-02-15T03:21:57.597Z,102900.78
2023-02-15T03:26:07.205Z,102893.88
2023-02-15T03:30:12.463Z,102889.41
2023-02-15T03:34:34.826Z,102882.16
2023-02-15T03:38:44.918Z,102876.75
2023-02-15T03:42:58.390Z,102881.47
2023-02-15T03:47:04.344Z,102892.19
2023-02-15T03:51:13.480Z,102895.03
2023-02-15T03:55:08.628Z,102898.84
2023-02-15T03:59:17.033Z,102897.06
2023-02-15T04:03:41.889Z,102898.00
2023-02-15T04:06:55.587Z,102905.53
2023-02-15T04:10:19.239Z,102895.81
2023-02-15T04:13:24.304Z,102889.31
2023-02-15T04:16:31.338Z,102880.34
2023-02-15T04:19:52.912Z,102876.00
2023-02-15T04:23:13.911Z,102869.91
2023-02-15T04:26:17.772Z,102869.50
2023-02-15T04:29:22.869Z,102869.44
2023-02-15T04:32:28.528Z,102856.66
2023-02-15T04:35:32.884Z,102858.41
2023-02-15T04:38:36.748Z,102859.50
2023-02-15T04:41:40.576Z,102862.06
2023-02-15T04:44:44.721Z,102851.22
2023-02-15T04:47:50.491Z,102854.03
2023-02-15T04:50:54.360Z,102851.88
2023-02-15T04:53:58.181Z,102853.78
2023-02-15T04:57:02.053Z,102854.72
2023-02-15T05:00:07.220Z,102859.19
2023-02-15T05:03:12.409Z,102852.63
2023-02-15T05:06:16.167Z,102850.91
2023-02-15T05:09:20.188Z,102850.91
2023-02-15T05:12:23.894Z,102847.28
2023-02-15T05:15:27.788Z,102843.84
2023-02-15T05:18:33.000Z,102843.25
2023-02-15T05:21:36.835Z,102836.69
2023-02-15T05:25:03.318Z,102829.06
2023-02-15T05:28:22.335Z,102834.91
2023-02-15T05:31:26.365Z,102830.47
2023-02-15T05:34:31.924Z,102831.13
2023-02-15T05:37:35.820Z,102831.34
2023-02-15T05:40:39.733Z,102830.16
2023-02-15T05:43:44.766Z,102824.09
2023-02-15T05:46:48.891Z,102823.13
2023-02-15T05:49:54.138Z,102821.94
2023-02-15T05:52:57.850Z,102816.19
2023-02-15T05:56:03.631Z,102816.25
2023-02-15T05:59:07.612Z,102814.31
2023-02-15T06:02:11.442Z,102813.75
2023-02-15T06:05:16.794Z,102811.91
2023-02-15T06:08:21.597Z,102805.97
2023-02-15T06:11:25.406Z,102799.50
2023-02-15T06:14:29.238Z,102804.84
2023-02-15T06:17:33.133Z,102800.34
2023-02-15T06:20:38.534Z,102802.41
2023-02-15T06:23:42.515Z,102811.72
2023-02-15T06:26:46.347Z,102805.66
2023-02-15T06:29:50.250Z,102808.88
2023-02-15T06:32:54.166Z,102805.06
2023-02-15T06:35:59.629Z,102803.81
2023-02-15T06:39:04.246Z,102802.88
2023-02-15T06:42:08.009Z,102793.06
2023-02-15T06:45:13.107Z,102797.59
2023-02-15T06:48:16.865Z,102807.09
2023-02-15T06:51:21.989Z,102811.28
2023-02-15T06:54:25.810Z,102810.94
2023-02-15T06:57:29.578Z,102804.44
2023-02-15T07:00:42.232Z,102809.56
2023-02-15T07:04:09.626Z,102819.09
2023-02-15T07:07:18.416Z,102816.47
2023-02-15T07:10:22.527Z,102803.50
2023-02-15T07:13:26.443Z,102799.81
2023-02-15T07:16:30.723Z,102796.63
2023-02-15T07:19:34.787Z,102794.06
2023-02-15T07:22:40.175Z,102794.78
2023-02-15T07:25:43.959Z,102796.25
2023-02-15T07:28:47.679Z,102793.69
2023-02-15T07:31:51.755Z,102791.25
2023-02-15T07:34:55.486Z,102785.13
2023-02-15T07:38:00.864Z,102773.09
2023-02-15T07:41:16.015Z,102777.94
2023-02-15T07:44:20.111Z,102774.56
2023-02-15T07:47:23.867Z,102773.31
2023-02-15T07:50:28.136Z,102768.53
2023-02-15T07:53:34.396Z,102762.56
2023-02-15T07:56:51.264Z,102771.25
2023-02-15T07:59:55.221Z,102761.63
2023-02-15T08:03:19.449Z,102752.50
2023-02-15T08:06:27.489Z,102751.41
2023-02-15T08:09:32.969Z,102748.75
2023-02-15T08:12:36.736Z,102753.84
2023-02-15T08:15:40.662Z,102749.09
2023-02-15T08:18:44.378Z,102753.00
2023-02-15T08:21:51.219Z,102755.47
2023-02-15T08:24:56.470Z,102748.41
2023-02-15T08:28:00.212Z,102749.00
2023-02-15T08:31:08.581Z,102748.91
2023-02-15T08:34:15.991Z,102750.53
2023-02-15T08:37:20.188Z,102744.41
2023-02-15T08:40:25.456Z,102751.63
2023-02-15T08:43:30.510Z,102755.59
2023-02-15T08:46:39.445Z,102750.13
2023-02-15T08:49:43.200Z,102745.56
2023-02-15T08:52:46.963Z,102743.00
2023-02-15T08:55:59.010Z,102741.97
2023-02-15T08:59:03.590Z,102745.38
2023-02-15T09:02:07.841Z,102742.91
2023-02-15T09:05:11.770Z,102731.88
2023-02-15T09:08:15.674Z,102725.50
2023-02-15T09:11:24.975Z,102725.75
2023-02-15T09:14:29.589Z,102737.38
2023-02-15T09:17:33.440Z,102724.47
2023-02-15T09:20:38.580Z,102713.47
2023-02-15T09:23:42.951Z,102706.34
2023-02-15T09:26:50.689Z,102712.44
2023-02-15T09:29:54.746Z,102705.91
2023-02-15T09:32:58.612Z,102707.69
2023-02-15T09:36:02.725Z,102697.97
2023-02-15T09:39:12.087Z,102711.00
2023-02-15T09:42:49.293Z,102712.50
2023-02-15T09:46:14.671Z,102703.69
2023-02-15T09:49:30.527Z,102710.25
2023-02-15T09:53:10.260Z,102698.38
2023-02-15T09:56:24.862Z,102704.63
2023-02-15T09:59:46.231Z,102699.06
2023-02-15T10:03:13.551Z,102689.91
2023-02-15T10:06:40.292Z,102692.63
2023-02-15T10:10:13.570Z,102696.91
2023-02-15T10:13:34.993Z,102693.44
2023-02-15T10:16:58.233Z,102696.53
2023-02-15T10:20:21.209Z,102700.53
2023-02-15T10:23:46.885Z,102690.50
2023-02-15T10:26:52.582Z,102685.97
2023-02-15T10:30:12.031Z,102682.56
2023-02-15T10:33:40.183Z,102673.81
2023-02-15T10:37:19.664Z,102668.13
2023-02-15T10:40:36.659Z,102668.38
2023-02-15T10:44:16.153Z,102675.38
2023-02-15T10:47:49.241Z,102675.56
2023-02-15T10:50:59.396Z,102665.63
2023-02-15T10:54:24.517Z,102652.88
2023-02-15T10:57:42.559Z,102651.28
2023-02-15T11:01:01.073Z,102649.50
2023-02-15T11:04:44.939Z,102661.28
2023-02-15T11:07:55.181Z,102651.91
2023-02-15T11:11:07.095Z,102650.00
2023-02-15T11:14:21.412Z,102644.22
2023-02-15T11:17:34.936Z,102650.63
2023-02-15T11:20:47.501Z,102636.19
2023-02-15T11:23:55.104Z,102629.31
2023-02-15T11:27:05.284Z,102620.69
2023-02-15T11:30:16.774Z,102610.31
2023-02-15T11:33:25.658Z,102615.69
2023-02-15T11:36:35.819Z,102603.78
2023-02-15T11:39:40.953Z,102602.22
2023-02-15T11:42:45.993Z,102593.78
2023-02-15T11:45:49.845Z,102584.22
2023-02-15T11:48:53.820Z,102585.13
2023-02-15T11:52:00.073Z,102581.59
2023-02-15T11:55:15.124Z,102581.72
2023-02-15T11:58:32.564Z,102575.63
2023-02-15T12:01:43.113Z,102568.00
2023-02-15T12:04:55.246Z,102562.81
2023-02-15T12:08:08.496Z,102561.03
2023-02-15T12:11:22.768Z,102553.19
2023-02-15T12:14:26.614Z,102550.59
2023-02-15T12:17:35.290Z,102555.81
2023-02-15T12:20:40.562Z,102543.69
2023-02-15T12:23:51.161Z,102541.94
2023-02-15T12:27:07.772Z,102541.06
2023-02-15T12:30:24.349Z,102532.44
2023-02-15T12:33:33.702Z,102528.22
2023-02-15T12:36:51.857Z,102520.34
2023-02-15T12:39:58.644Z,102519.47
2023-02-15T12:43:09.695Z,102515.09
2023-02-15T12:46:24.716Z,102516.00
2023-02-15T12:49:29.874Z,102509.91
2023-02-15T12:52:33.827Z,102503.84
2023-02-15T12:55:37.992Z,102506.44
2023-02-15T12:58:50.275Z,102510.81
2023-02-15T13:01:55.926Z,102505.59
2023-02-15T13:05:14.839Z,102504.72
2023-02-15T13:08:23.705Z,102498.59
2023-02-15T13:11:35.263Z,102501.25
2023-02-15T13:14:47.077Z,102499.47
2023-02-15T13:17:50.912Z,102488.16
2023-02-15T13:20:55.437Z,102490.78
2023-02-15T13:24:07.587Z,102485.53
2023-02-15T13:27:18.890Z,102482.94
2023-02-15T13:30:33.769Z,102489.03
2023-02-15T13:33:40.585Z,102484.69
2023-02-15T13:36:56.258Z,102474.19
2023-02-15T13:40:09.158Z,102473.34
2023-02-15T13:43:36.220Z,102470.75
2023-02-15T13:46:58.627Z,102471.59
2023-02-15T13:50:30.309Z,102459.38
2023-02-15T13:54:06.333Z,102462.88
2023-02-15T13:57:36.904Z,102455.00
2023-02-15T14:00:51.133Z,102448.91
2023-02-15T14:04:21.384Z,102439.31
2023-02-15T14:07:47.517Z,102440.16
2023-02-15T14:11:03.287Z,102439.25
2023-02-15T14:14:41.093Z,102440.13
2023-02-15T14:18:02.311Z,102433.94
2023-02-15T14:21:17.324Z,102431.38
2023-02-15T14:24:39.674Z,102429.56
2023-02-15T14:27:58.590Z,102431.41
2023-02-15T14:31:07.819Z,102431.44
2023-02-15T14:34:24.305Z,102434.00
2023-02-15T14:37:47.976Z,102427.03
2023-02-15T14:41:03.589Z,102429.66
2023-02-15T14:44:19.975Z,102432.31
2023-02-15T14:47:34.077Z,102424.47
2023-02-15T14:50:48.385Z,102415.66
2023-02-15T14:53:53.575Z,102412.22
2023-02-15T14:57:35.772Z,102421.84
2023-02-15T15:00:42.374Z,102420.13
2023-02-15T15:03:58.602Z,102433.22
2023-02-15T15:07:11.452Z,102424.47
2023-02-15T15:10:48.195Z,102433.19
2023-02-15T15:13:58.674Z,102434.09
2023-02-15T15:17:04.886Z,102435.84
2023-02-15T15:20:17.588Z,102410.53
2023-02-15T15:23:47.066Z,102417.50
2023-02-15T15:27:40.929Z,102410.56
2023-02-15T15:31:06.651Z,102407.06
2023-02-15T15:35:05.540Z,102396.63
2023-02-15T15:38:44.075Z,102387.91
2023-02-15T15:42:00.302Z,102385.28
2023-02-15T15:45:44.132Z,102375.69
2023-02-15T15:48:49.363Z,102370.47
2023-02-15T15:51:54.553Z,102368.75
2023-02-15T15:55:05.560Z,102372.19
2023-02-15T15:58:11.692Z,102372.22
2023-02-15T16:01:15.974Z,102374.81
2023-02-15T16:04:28.178Z,102378.25
2023-02-15T16:07:31.975Z,102385.22
2023-02-15T16:10:39.007Z,102377.31
2023-02-15T16:13:45.649Z,102374.75
2023-02-15T16:16:54.619Z,102363.34
2023-02-15T16:20:05.284Z,102359.03
2023-02-15T16:23:50.040Z,102359.81
2023-02-15T16:27:25.167Z,102352.84
2023-02-15T16:30:34.040Z,102358.78
2023-02-15T16:33:39.998Z,102359.66
2023-02-15T16:36:43.847Z,102355.31
2023-02-15T16:39:49.589Z,102360.44
2023-02-15T16:42:55.955Z,102354.31
2023-02-15T16:46:08.598Z,102359.63
2023-02-15T16:49:20.969Z,102370.75
2023-02-15T16:52:27.931Z,102381.03
2023-02-15T16:55:40.486Z,102381.75
2023-02-15T16:58:48.336Z,102380.91
2023-02-15T17:01:54.623Z,102374.84
2023-02-15T17:05:19.531Z,102372.25
2023-02-15T17:08:30.651Z,102377.25
2023-02-15T17:11:42.681Z,102378.03
2023-02-15T17:14:46.444Z,102382.31
2023-02-15T17:17:51.797Z,102382.41
2023-02-15T17:21:01.124Z,102378.00
2023-02-15T17:24:06.489Z,102373.69
2023-02-15T17:27:18.827Z,102370.25
2023-02-15T17:30:32.169Z,102368.56
2023-02-15T17:33:41.230Z,102371.19
2023-02-15T17:37:00.574Z,102368.59
2023-02-15T17:40:21.547Z,102366.69
2023-02-15T17:43:25.821Z,102358.84
2023-02-15T17:46:36.279Z,102350.19
2023-02-15T17:49:41.451Z,102358.00
2023-02-15T17:52:45.267Z,102351.72
2023-02-15T17:55:49.115Z,102349.13
2023-02-15T17:58:52.950Z,102349.94
2023-02-15T18:02:14.511Z,102356.91
2023-02-15T18:05:37.111Z,102350.72
2023-02-15T18:08:59.271Z,102357.63
2023-02-15T18:12:04.083Z,102364.66
2023-02-15T18:15:12.753Z,102355.72
2023-02-15T18:18:16.783Z,102358.19
2023-02-15T18:21:22.179Z,102348.63
2023-02-15T18:24:28.165Z,102348.56
2023-02-15T18:27:32.118Z,102353.81
2023-02-15T18:30:35.965Z,102342.53
2023-02-15T18:33:45.161Z,102333.91
2023-02-15T18:36:51.001Z,102338.22
2023-02-15T18:39:55.547Z,102334.78
2023-02-15T18:42:59.504Z,102336.41
2023-02-15T18:46:03.411Z,102334.53
2023-02-15T18:49:07.157Z,102356.19
2023-02-15T18:52:18.222Z,102363.81
2023-02-15T18:55:25.065Z,102342.88
2023-02-15T18:58:29.092Z,102355.88
2023-02-15T19:01:33.010Z,102364.47
2023-02-15T19:04:39.746Z,102354.88
2023-02-15T19:07:48.734Z,102357.53
2023-02-15T19:10:53.393Z,102366.94
2023-02-15T19:13:57.476Z,102373.00
2023-02-15T19:17:02.133Z,102369.38
2023-02-15T19:20:06.954Z,102378.78
2023-02-15T19:23:20.407Z,102370.84
2023-02-15T19:26:33.466Z,102377.78
2023-02-15T19:29:47.488Z,102379.34
2023-02-15T19:32:51.616Z,102377.53
2023-02-15T19:35:58.401Z,102376.53
2023-02-15T19:39:03.732Z,102385.97
2023-02-15T19:42:15.404Z,102379.88
2023-02-15T19:45:40.944Z,102378.06
2023-02-15T19:49:08.455Z,102372.78
2023-02-15T19:52:27.973Z,102373.59
2023-02-15T19:55:38.060Z,102368.31
2023-02-15T19:58:41.900Z,102369.09
2023-02-15T20:01:46.012Z,102365.59
2023-02-15T20:04:50.188Z,102356.00
2023-02-15T20:07:55.632Z,102354.97
2023-02-15T20:11:01.528Z,102347.13
2023-02-15T20:14:07.070Z,102340.25
2023-02-15T20:17:11.190Z,102337.56
2023-02-15T20:20:19.716Z,102338.44
2023-02-15T20:23:30.988Z,102341.03
2023-02-15T20:26:37.519Z,102346.22
2023-02-15T20:29:41.465Z,102339.31
2023-02-15T20:32:45.574Z,102336.81
2023-02-15T20:35:50.469Z,102337.66
2023-02-15T20:38:57.406Z,102333.16
2023-02-15T20:42:02.846Z,102341.78
2023-02-15T20:45:18.123Z,102339.28
2023-02-15T20:48:21.875Z,102342.56
2023-02-15T20:51:25.726Z,102349.47
2023-02-15T20:54:37.293Z,102354.66
2023-02-15T20:57:42.878Z,102352.94
2023-02-15T21:00:46.839Z,102352.19
2023-02-15T21:03:51.427Z,102365.09
2023-02-15T21:06:55.374Z,102355.75
2023-02-15T21:10:00.418Z,102359.28
2023-02-15T21:13:06.526Z,102361.72
2023-02-15T21:16:11.442Z,102348.22
2023-02-15T21:19:17.744Z,102351.72
2023-02-15T21:22:22.237Z,102352.56
2023-02-15T21:25:31.854Z,102344.13
2023-02-15T21:28:37.217Z,102346.41
2023-02-15T21:31:44.295Z,102356.00
2023-02-15T21:34:48.467Z,102352.31
2023-02-15T21:37:54.985Z,102353.13
2023-02-15T21:41:20.863Z,102349.69
2023-02-15T21:44:52.087Z,102347.03
2023-02-15T21:48:17.568Z,102353.09
2023-02-15T21:51:41.363Z,102348.66
2023-02-15T21:54:51.249Z,102345.13
2023-02-15T21:57:55.135Z,102349.41
2023-02-15T22:01:03.387Z,102345.84
2023-02-15T22:04:15.116Z,102337.28
2023-02-15T22:07:19.541Z,102329.41
2023-02-15T22:10:23.275Z,102329.44
2023-02-15T22:13:31.217Z,102331.97
2023-02-15T22:16:36.549Z,102330.25
2023-02-15T22:19:40.316Z,102331.97
2023-02-15T22:22:44.179Z,102337.22
2023-02-15T22:25:56.004Z,102334.66
2023-02-15T22:28:59.902Z,102342.41
2023-02-15T22:32:05.511Z,102336.31
2023-02-15T22:35:18.478Z,102337.09
2023-02-15T22:38:22.721Z,102331.91
2023-02-15T22:41:30.863Z,102331.03
2023-02-15T22:44:36.648Z,102333.66
2023-02-15T22:47:41.850Z,102323.13
2023-02-15T22:50:45.738Z,102322.06
2023-02-15T22:53:51.872Z,102317.44
2023-02-15T22:56:56.057Z,102315.56
2023-02-15T23:00:01.273Z,102317.22
2023-02-15T23:03:19.722Z,102317.09
2023-02-15T23:06:23.569Z,102318.59
2023-02-15T23:09:27.385Z,102323.72
2023-02-15T23:12:53.766Z,102311.81
2023-02-15T23:16:00.261Z,102303.91
2023-02-15T23:19:07.472Z,102312.50
2023-02-15T23:22:16.709Z,102308.06
2023-02-15T23:25:24.521Z,102319.22
2023-02-15T23:28:33.381Z,102305.72
2023-02-15T23:31:43.247Z,102321.34
2023-02-15T23:34:48.510Z,102323.81
2023-02-15T23:37:52.247Z,102323.88
2023-02-15T23:41:17.355Z,102325.63
2023-02-15T23:44:21.579Z,102331.63
2023-02-15T23:47:43.703Z,102332.31
2023-02-15T23:50:48.931Z,102331.56
2023-02-15T23:53:52.716Z,102338.50
2023-02-15T23:57:02.115Z,102325.41
